Time;durP1;ratioP1;P1;durP2;ratioP2;P2;SDS_P1;SDS_P2;PMS_P1;PMS_P2;Temp;Humidity;BMP_temperature;BMP_pressure;BME280_temperature;BME280_humidity;BME280_pressure;Samples;Min_cycle;Max_cycle;Signal;HPM_P1;HPM_P2
2023/09/16 00:01:57;;;;;;;4.60;2.20;;;21.50;56.80;;;;;;2144013;59;21009;-68
2023/09/16 00:04:27;;;;;;;3.15;2.00;;;21.60;57.00;;;;;;2345163;58;21397;-68
2023/09/16 00:06:53;;;;;;;3.67;2.25;;;21.50;57.00;;;;;;2361175;58;20976;-68
2023/09/16 00:09:19;;;;;;;4.55;2.35;;;21.50;57.00;;;;;;2158461;59;20987;-67
2023/09/16 00:11:47;;;;;;;3.53;2.05;;;21.50;57.10;;;;;;2334436;58;21026;-69
2023/09/16 00:14:22;;;;;;;4.00;2.50;;;21.50;57.10;;;;;;2135875;59;21034;-67
2023/09/16 00:16:51;;;;;;;3.55;1.95;;;21.50;57.10;;;;;;2150481;59;21009;-67
2023/09/16 00:19:21;;;;;;;3.22;2.05;;;21.50;57.10;;;;;;2358839;58;21055;-68
2023/09/16 00:21:48;;;;;;;5.43;2.40;;;21.50;57.20;;;;;;2365492;58;21766;-67
2023/09/16 00:24:14;;;;;;;3.90;2.37;;;21.50;57.30;;;;;;2362946;58;21000;-67
2023/09/16 00:26:41;;;;;;;4.53;2.40;;;21.50;57.40;;;;;;2157767;59;20951;-68
2023/09/16 00:29:08;;;;;;;3.45;2.17;;;21.50;57.40;;;;;;2360624;58;21028;-69
2023/09/16 00:31:36;;;;;;;4.47;2.55;;;21.50;57.40;;;;;;2151367;59;21085;-67
2023/09/16 00:34:03;;;;;;;3.03;1.98;;;21.40;57.30;;;;;;2130423;59;21087;-68
2023/09/16 00:36:32;;;;;;;3.75;2.20;;;21.40;57.30;;;;;;2331396;58;21044;-67
2023/09/16 00:38:58;;;;;;;3.62;2.20;;;21.40;57.30;;;;;;2157203;59;20992;-69
2023/09/16 00:41:25;;;;;;;3.90;2.50;;;21.40;57.30;;;;;;2331026;58;20980;-67
2023/09/16 00:43:52;;;;;;;3.70;2.30;;;21.40;57.40;;;;;;2359932;58;21040;-68
2023/09/16 00:49:47;;;;;;;4.12;2.50;;;21.40;57.70;;;;;;2358940;58;21061;-69
2023/09/16 00:52:14;;;;;;;3.85;2.47;;;21.40;57.40;;;;;;2339350;58;21063;-67
2023/09/16 00:54:40;;;;;;;4.12;2.53;;;21.30;57.30;;;;;;2354696;58;21287;-67
2023/09/16 00:57:09;;;;;;;4.45;2.50;;;21.30;57.40;;;;;;2149831;59;21054;-69
2023/09/16 00:59:35;;;;;;;3.85;2.60;;;21.30;57.40;;;;;;2151130;59;20979;-67
2023/09/16 01:02:02;;;;;;;4.85;2.40;;;21.30;57.50;;;;;;2149955;59;21019;-67
2023/09/16 01:04:29;;;;;;;3.92;2.67;;;21.20;57.50;;;;;;2151329;59;20958;-66
2023/09/16 01:06:55;;;;;;;4.55;2.40;;;21.30;57.60;;;;;;2359489;58;21007;-67
2023/09/16 01:09:22;;;;;;;3.83;2.22;;;21.20;57.50;;;;;;2340125;58;20974;-68
2023/09/16 01:11:48;;;;;;;5.15;3.05;;;21.20;58.10;;;;;;2361263;58;20988;-69
2023/09/16 01:14:15;;;;;;;3.72;2.40;;;21.20;57.50;;;;;;2154345;59;21897;-69
2023/09/16 01:17:08;;;;;;;3.62;2.45;;;21.20;57.50;;;;;;2349197;58;21069;-70
2023/09/16 01:20:06;;;;;;;4.90;2.40;;;21.20;57.70;;;;;;2149460;59;21003;-68
2023/09/16 01:22:35;;;;;;;3.83;2.42;;;21.20;57.60;;;;;;2361139;58;21066;-70
2023/09/16 01:25:08;;;;;;;4.10;2.47;;;21.10;57.40;;;;;;2360419;58;21045;-67
2023/09/16 01:27:34;;;;;;;5.53;3.40;;;21.10;57.50;;;;;;2154746;60;21023;-68
2023/09/16 01:30:04;;;;;;;4.55;2.37;;;21.10;57.40;;;;;;2154330;60;21017;-67
2023/09/16 01:35:08;;;;;;;3.62;2.30;;;21.10;57.40;;;;;;2356097;58;20982;-69
2023/09/16 01:37:34;;;;;;;3.87;2.05;;;21.00;57.40;;;;;;2340871;58;20976;-67
2023/09/16 01:40:00;;;;;;;3.50;2.20;;;21.00;57.20;;;;;;2158924;59;21738;-67
2023/09/16 01:42:28;;;;;;;3.17;2.10;;;21.00;57.30;;;;;;2365795;58;21137;-69
2023/09/16 01:45:00;;;;;;;3.75;2.65;;;21.00;57.40;;;;;;2349160;58;21073;-67
2023/09/16 01:47:26;;;;;;;3.75;2.25;;;20.90;57.40;;;;;;2366669;58;20956;-68
2023/09/16 01:49:53;;;;;;;4.75;2.92;;;20.90;57.30;;;;;;2158695;59;21031;-68
2023/09/16 01:52:19;;;;;;;3.97;2.60;;;20.90;57.40;;;;;;2366345;58;21068;-66
2023/09/16 01:54:46;;;;;;;5.35;2.22;;;20.80;57.30;;;;;;2358457;58;20977;-68
2023/09/16 01:57:12;;;;;;;3.58;2.20;;;20.80;57.30;;;;;;2365426;58;20999;-65
2023/09/16 01:59:39;;;;;;;4.07;2.55;;;20.80;57.40;;;;;;2159633;59;20993;-67
2023/09/16 02:02:05;;;;;;;4.00;2.62;;;20.80;57.50;;;;;;2360313;58;21306;-67
2023/09/16 02:04:31;;;;;;;3.92;2.40;;;20.70;57.40;;;;;;2157339;59;21013;-68
2023/09/16 02:06:58;;;;;;;4.00;2.50;;;20.70;57.40;;;;;;2158942;59;20948;-68
2023/09/16 02:09:25;;;;;;;5.70;2.53;;;20.70;57.40;;;;;;2365865;58;21020;-68
2023/09/16 02:11:51;;;;;;;3.58;2.35;;;20.70;57.50;;;;;;2156796;59;20997;-69
2023/09/16 02:14:18;;;;;;;3.97;2.40;;;20.60;57.40;;;;;;2157086;59;20940;-67
2023/09/16 02:16:45;;;;;;;3.53;2.17;;;20.60;57.50;;;;;;2159722;59;21067;-69
2023/09/16 02:19:12;;;;;;;3.62;1.95;;;20.60;57.40;;;;;;2158312;59;21000;-66
2023/09/16 02:21:40;;;;;;;4.32;2.17;;;20.50;57.30;;;;;;2365800;58;21044;-67
2023/09/16 02:24:06;;;;;;;3.10;2.00;;;20.50;57.30;;;;;;2159114;59;21088;-67
2023/09/16 02:26:33;;;;;;;4.50;2.20;;;20.50;57.40;;;;;;2366047;58;20976;-70
2023/09/16 02:28:59;;;;;;;3.28;2.12;;;20.50;57.50;;;;;;2159123;59;20972;-67
2023/09/16 02:31:27;;;;;;;3.75;2.42;;;20.40;57.50;;;;;;2360930;58;21526;-70
2023/09/16 02:33:57;;;;;;;3.35;2.20;;;20.40;57.70;;;;;;2358815;58;20974;-69
2023/09/16 02:36:24;;;;;;;5.32;2.25;;;20.40;57.80;;;;;;2156650;59;20992;-68
2023/09/16 02:38:52;;;;;;;3.50;2.22;;;20.40;57.80;;;;;;2366692;58;20976;-67
2023/09/16 02:41:19;;;;;;;4.03;2.20;;;20.30;57.70;;;;;;2365918;58;21072;-67
2023/09/16 02:43:46;;;;;;;4.53;2.30;;;20.30;57.90;;;;;;2159881;59;21922;-69
2023/09/16 02:46:13;;;;;;;3.50;2.08;;;20.30;57.90;;;;;;2366389;58;21036;-68
2023/09/16 02:48:40;;;;;;;4.00;2.10;;;20.30;57.90;;;;;;2159450;59;21092;-66
2023/09/16 02:51:09;;;;;;;3.15;1.90;;;20.30;57.80;;;;;;2366590;58;21061;-68
2023/09/16 02:53:37;;;;;;;4.32;2.10;;;20.30;57.80;;;;;;2366513;58;21897;-67
2023/09/16 02:56:03;;;;;;;3.83;2.28;;;20.30;57.80;;;;;;2158924;59;21020;-67
2023/09/16 02:58:30;;;;;;;3.35;2.12;;;20.20;57.80;;;;;;2158747;59;21037;-69
2023/09/16 03:00:56;;;;;;;3.28;2.10;;;20.20;57.80;;;;;;2159053;59;21044;-66
2023/09/16 03:03:22;;;;;;;4.03;2.62;;;20.20;57.80;;;;;;2366352;58;20984;-69
2023/09/16 03:05:49;;;;;;;4.75;2.60;;;20.20;57.90;;;;;;2366365;58;20992;-67
2023/09/16 03:08:15;;;;;;;3.78;2.15;;;20.20;57.90;;;;;;2363997;58;20993;-69
2023/09/16 03:10:42;;;;;;;3.67;2.60;;;20.20;57.90;;;;;;2360632;58;20954;-66
2023/09/16 03:13:08;;;;;;;3.50;2.10;;;20.20;57.80;;;;;;2358355;58;21060;-69
2023/09/16 03:15:36;;;;;;;3.35;2.10;;;20.10;57.70;;;;;;2365745;58;20964;-68
2023/09/16 03:18:03;;;;;;;3.80;2.22;;;20.10;57.70;;;;;;2365978;58;21535;-67
2023/09/16 03:20:33;;;;;;;4.07;2.28;;;20.10;57.70;;;;;;2365991;58;21078;-69
2023/09/16 03:22:59;;;;;;;5.03;2.35;;;20.10;57.80;;;;;;2159671;59;21036;-68
2023/09/16 03:25:26;;;;;;;5.22;2.58;;;20.10;57.80;;;;;;2366173;58;21048;-66
2023/09/16 03:27:52;;;;;;;4.18;2.62;;;20.00;57.80;;;;;;2158726;59;21508;-70
2023/09/16 03:30:19;;;;;;;4.50;2.42;;;20.00;57.80;;;;;;2366137;58;20944;-69
2023/09/16 03:32:48;;;;;;;3.75;2.20;;;20.00;57.80;;;;;;2159324;59;21028;-69
2023/09/16 03:35:14;;;;;;;3.62;2.35;;;19.80;57.70;;;;;;2158223;59;20973;-67
2023/09/16 03:37:41;;;;;;;3.83;2.42;;;19.90;57.70;;;;;;2155713;59;21024;-69
2023/09/16 03:40:07;;;;;;;4.55;2.10;;;19.90;57.70;;;;;;2158580;58;20988;-68
2023/09/16 03:42:33;;;;;;;4.50;2.30;;;19.90;57.70;;;;;;2366382;58;21061;-69
2023/09/16 03:45:00;;;;;;;3.80;2.40;;;19.90;57.80;;;;;;2158900;59;21053;-66
2023/09/16 03:47:27;;;;;;;3.45;2.40;;;19.80;57.70;;;;;;2158885;59;21381;-68
2023/09/16 03:49:53;;;;;;;3.50;2.17;;;19.80;57.80;;;;;;2366712;58;21461;-69
2023/09/16 03:52:20;;;;;;;3.72;2.25;;;19.80;57.90;;;;;;2158463;59;20990;-68
2023/09/16 03:54:47;;;;;;;3.62;2.33;;;19.80;57.90;;;;;;2366729;58;21049;-68
2023/09/16 03:57:13;;;;;;;6.05;2.55;;;19.80;57.90;;;;;;2366239;58;21404;-68
2023/09/16 03:59:41;;;;;;;4.07;2.35;;;19.70;57.90;;;;;;2158595;59;21004;-68
2023/09/16 04:02:08;;;;;;;5.30;2.20;;;19.70;57.90;;;;;;2159134;59;21007;-69
2023/09/16 04:04:37;;;;;;;4.62;1.90;;;19.70;57.90;;;;;;2366252;58;20972;-67
2023/09/16 04:07:04;;;;;;;4.45;1.98;;;19.70;57.90;;;;;;2159294;59;20995;-67
2023/09/16 04:09:30;;;;;;;3.25;1.73;;;19.70;57.90;;;;;;2366900;58;20968;-69
2023/09/16 04:11:57;;;;;;;3.60;2.35;;;19.60;57.80;;;;;;2162194;59;20988;-68
2023/09/16 04:14:27;;;;;;;3.90;1.98;;;19.60;57.80;;;;;;2365678;58;21510;-67
2023/09/16 04:16:53;;;;;;;3.85;2.20;;;19.60;57.90;;;;;;2362175;58;21478;-69
2023/09/16 04:19:20;;;;;;;5.05;2.40;;;19.50;57.90;;;;;;2362295;58;21032;-68
2023/09/16 04:21:47;;;;;;;3.42;2.10;;;19.50;58.00;;;;;;2366952;58;21032;-66
2023/09/16 04:24:15;;;;;;;3.45;2.22;;;19.50;58.60;;;;;;2366251;58;21020;-69
2023/09/16 04:26:41;;;;;;;3.58;2.00;;;19.50;58.00;;;;;;2356677;58;21001;-67
2023/09/16 04:29:08;;;;;;;3.83;2.33;;;19.50;58.10;;;;;;2365326;58;21476;-69
2023/09/16 04:31:37;;;;;;;3.97;2.62;;;19.50;58.20;;;;;;2365609;58;20992;-68
2023/09/16 04:34:05;;;;;;;3.93;2.20;;;19.50;58.20;;;;;;2159365;59;21481;-67
2023/09/16 04:36:32;;;;;;;3.70;1.98;;;19.40;58.10;;;;;;2158705;59;20964;-66
2023/09/16 04:38:58;;;;;;;3.67;2.12;;;19.40;58.00;;;;;;2365942;58;21080;-67
2023/09/16 04:41:25;;;;;;;4.43;2.70;;;19.40;58.10;;;;;;2365949;58;21816;-66
2023/09/16 04:43:51;;;;;;;4.03;2.22;;;19.40;58.10;;;;;;2158297;59;21044;-65
2023/09/16 04:46:18;;;;;;;4.05;2.50;;;19.40;58.10;;;;;;2365878;58;21032;-66
2023/09/16 04:48:45;;;;;;;4.72;3.00;;;19.40;58.20;;;;;;2365985;58;21017;-66
2023/09/16 04:51:11;;;;;;;4.60;2.92;;;19.40;58.30;;;;;;2365924;58;21521;-67
2023/09/16 04:53:38;;;;;;;4.43;2.92;;;19.30;58.30;;;;;;2361693;58;21042;-67
2023/09/16 04:56:09;;;;;;;3.33;2.03;;;19.30;58.40;;;;;;2363208;58;20971;-66
2023/09/16 04:58:35;;;;;;;3.45;2.40;;;19.30;58.30;;;;;;2365309;58;21041;-66
2023/09/16 05:01:04;;;;;;;3.78;2.28;;;19.30;58.40;;;;;;2366324;58;21048;-68
2023/09/16 05:03:31;;;;;;;3.90;2.67;;;19.30;58.60;;;;;;2158382;59;20987;-67
2023/09/16 05:05:58;;;;;;;4.30;2.60;;;19.30;58.90;;;;;;2366034;58;21486;-68
2023/09/16 05:08:25;;;;;;;3.30;2.00;;;19.30;58.90;;;;;;2159158;59;21008;-67
2023/09/16 05:10:54;;;;;;;3.87;2.25;;;19.30;58.80;;;;;;2360536;58;21536;-69
2023/09/16 05:13:21;;;;;;;4.28;2.83;;;19.30;58.90;;;;;;2364618;58;21036;-68
2023/09/16 05:15:51;;;;;;;4.20;2.62;;;19.30;59.00;;;;;;2364581;58;21068;-67
2023/09/16 05:18:17;;;;;;;4.30;3.03;;;19.30;59.00;;;;;;2153462;59;21506;-68
2023/09/16 05:20:45;;;;;;;6.53;2.50;;;19.30;59.10;;;;;;2158685;59;21613;-68
2023/09/16 05:23:17;;;;;;;4.03;2.85;;;19.30;59.20;;;;;;2365958;58;20984;-70
2023/09/16 05:25:50;;;;;;;3.62;2.30;;;19.30;59.30;;;;;;2365995;58;21465;-66
2023/09/16 05:28:17;;;;;;;4.18;2.67;;;19.30;59.20;;;;;;2156745;59;20957;-69
2023/09/16 05:30:44;;;;;;;3.60;2.30;;;19.30;59.00;;;;;;2156445;59;20980;-68
2023/09/16 05:33:16;;;;;;;4.70;2.00;;;19.30;59.00;;;;;;2154497;59;21011;-67
2023/09/16 05:35:43;;;;;;;3.83;2.10;;;19.30;59.00;;;;;;2159422;59;21059;-68
2023/09/16 05:38:10;;;;;;;3.97;2.47;;;19.30;59.00;;;;;;2157808;59;20988;-66
2023/09/16 05:40:39;;;;;;;4.05;2.50;;;19.30;59.00;;;;;;2158394;59;21469;-67
2023/09/16 05:43:06;;;;;;;3.80;2.25;;;19.30;59.00;;;;;;2365341;58;20988;-66
2023/09/16 05:45:32;;;;;;;7.00;2.67;;;19.30;58.90;;;;;;2365607;58;20976;-66
2023/09/16 05:48:02;;;;;;;3.85;2.50;;;19.30;59.00;;;;;;2365647;58;21429;-68
2023/09/16 05:50:29;;;;;;;5.93;3.37;;;19.30;59.10;;;;;;2365996;58;21469;-69
2023/09/16 05:52:56;;;;;;;4.20;2.87;;;19.30;59.20;;;;;;2158934;59;21052;-64
2023/09/16 05:58:11;;;;;;;4.35;2.75;;;19.30;59.30;;;;;;2528432;53;22907;-67
2023/09/16 06:00:37;;;;;;;5.93;3.10;;;19.30;59.40;;;;;;2310121;54;20953;-67
2023/09/16 06:03:04;;;;;;;6.68;2.67;;;19.40;59.50;;;;;;2329860;55;21045;-67
2023/09/16 06:05:30;;;;;;;4.30;2.70;;;19.40;59.60;;;;;;2321229;54;20989;-67
2023/09/16 06:07:57;;;;;;;4.30;2.70;;;19.40;59.60;;;;;;2570177;53;21004;-68
2023/09/16 06:10:24;;;;;;;5.20;2.80;;;19.40;59.50;;;;;;2300361;53;20951;-66
2023/09/16 06:12:51;;;;;;;4.68;2.90;;;19.40;59.60;;;;;;2329430;54;20933;-69
2023/09/16 06:15:18;;;;;;;4.20;2.97;;;19.40;59.60;;;;;;2572548;53;20934;-67
2023/09/16 06:17:45;;;;;;;5.10;2.78;;;19.40;59.70;;;;;;2572911;53;21096;-67
2023/09/16 06:20:11;;;;;;;5.25;3.05;;;19.50;59.80;;;;;;2572429;53;20977;-68
2023/09/16 06:22:38;;;;;;;5.55;3.47;;;19.50;59.80;;;;;;2572613;53;20933;-68
2023/09/16 06:25:05;;;;;;;5.35;3.40;;;19.50;59.90;;;;;;2572952;53;20997;-66
2023/09/16 06:27:31;;;;;;;4.93;3.50;;;19.50;59.90;;;;;;2573010;53;20997;-67
2023/09/16 06:29:57;;;;;;;4.25;2.83;;;19.50;60.00;;;;;;2572636;53;21016;-68
2023/09/16 06:32:24;;;;;;;4.65;2.90;;;19.60;60.10;;;;;;2572914;53;20926;-69
2023/09/16 06:34:50;;;;;;;4.65;2.90;;;19.60;60.10;;;;;;2329432;54;21000;-67
2023/09/16 06:37:23;;;;;;;4.65;2.75;;;19.60;60.10;;;;;;2559402;53;20945;-68
2023/09/16 06:39:50;;;;;;;4.57;3.00;;;19.70;60.50;;;;;;2329826;55;21419;-69
2023/09/16 06:42:17;;;;;;;5.03;3.17;;;19.70;60.50;;;;;;2329085;54;20996;-68
2023/09/16 06:44:43;;;;;;;4.37;2.62;;;19.70;60.60;;;;;;2329886;55;20949;-68
2023/09/16 06:47:10;;;;;;;4.65;3.03;;;19.70;60.70;;;;;;2572477;53;20932;-68
2023/09/16 06:49:36;;;;;;;4.43;2.97;;;19.80;60.90;;;;;;2572896;53;20964;-68
2023/09/16 06:52:03;;;;;;;4.25;2.92;;;19.90;61.20;;;;;;2572375;53;21052;-69
2023/09/16 06:54:29;;;;;;;4.62;3.15;;;19.90;61.30;;;;;;2528976;54;21069;-69
2023/09/16 06:56:59;;;;;;;5.68;3.17;;;19.90;61.40;;;;;;2583146;53;20920;-70
2023/09/16 06:59:25;;;;;;;5.62;3.58;;;20.00;61.60;;;;;;2339035;54;21002;-71
2023/09/16 07:01:51;;;;;;;5.20;3.75;;;20.10;61.80;;;;;;2339059;54;20947;-71
2023/09/16 07:04:20;;;;;;;5.03;3.62;;;20.10;61.90;;;;;;2337742;55;20954;-70
2023/09/16 07:06:47;;;;;;;4.82;3.28;;;20.20;62.10;;;;;;2584159;53;20935;-68
2023/09/16 07:09:14;;;;;;;5.30;3.50;;;20.20;62.10;;;;;;2579187;53;21986;-68
2023/09/16 07:11:41;;;;;;;5.03;3.22;;;20.40;62.30;;;;;;2573853;53;20964;-69
2023/09/16 07:14:07;;;;;;;6.65;4.12;;;20.40;62.30;;;;;;2583119;53;21449;-68
2023/09/16 07:16:40;;;;;;;4.60;3.00;;;20.50;62.50;;;;;;2337906;55;21380;-70
2023/09/16 07:19:07;;;;;;;5.93;3.08;;;20.60;62.60;;;;;;2583174;53;21030;-68
2023/09/16 07:21:34;;;;;;;4.57;3.22;;;20.70;62.60;;;;;;2583237;53;20956;-68
2023/09/16 07:24:01;;;;;;;5.28;3.72;;;20.70;62.60;;;;;;2582411;53;20952;-70
2023/09/16 07:26:28;;;;;;;5.03;3.70;;;20.80;62.80;;;;;;2338454;55;21075;-68
2023/09/16 07:28:55;;;;;;;4.10;3.03;;;20.90;62.90;;;;;;2337544;55;21749;-69
2023/09/16 07:31:21;;;;;;;5.03;3.67;;;21.00;62.90;;;;;;2582747;53;21433;-70
2023/09/16 07:33:48;;;;;;;5.18;3.72;;;21.10;63.00;;;;;;2582963;53;21095;-70
2023/09/16 07:36:14;;;;;;;5.30;3.72;;;21.10;63.00;;;;;;2582811;53;21007;-71
2023/09/16 07:38:40;;;;;;;5.22;3.42;;;21.20;63.00;;;;;;2582928;53;20972;-71
2023/09/16 07:41:07;;;;;;;4.60;3.00;;;21.40;63.10;;;;;;2570143;53;21045;-69
2023/09/16 07:43:33;;;;;;;6.00;3.72;;;21.40;63.00;;;;;;2578096;53;20957;-71
2023/09/16 07:46:00;;;;;;;4.35;3.15;;;21.50;63.00;;;;;;2589736;53;20948;-69
2023/09/16 07:48:27;;;;;;;4.78;3.00;;;21.50;63.00;;;;;;2573182;53;21814;-69
2023/09/16 07:50:54;;;;;;;5.28;3.17;;;21.60;62.80;;;;;;2305864;54;21879;-68
2023/09/16 07:53:25;;;;;;;4.60;3.33;;;21.70;62.80;;;;;;2536880;54;20961;-70
2023/09/16 07:55:51;;;;;;;4.78;3.55;;;21.80;62.90;;;;;;2557051;54;20988;-71
2023/09/16 07:58:22;;;;;;;5.50;3.90;;;21.90;63.10;;;;;;2315783;54;20952;-71
2023/09/16 08:00:49;;;;;;;6.35;4.50;;;21.90;63.10;;;;;;2316631;55;20940;-70
2023/09/16 08:03:19;;;;;;;5.07;3.60;;;22.00;63.20;;;;;;2556570;53;20995;-70
2023/09/16 08:05:45;;;;;;;4.62;3.33;;;22.10;63.20;;;;;;2317571;55;21484;-71
2023/09/16 08:08:12;;;;;;;7.10;3.85;;;22.10;63.00;;;;;;2316520;54;20917;-68
2023/09/16 08:10:39;;;;;;;4.95;3.33;;;22.20;63.00;;;;;;2316898;55;20996;-70
2023/09/16 08:13:21;;;;;;;5.07;3.78;;;22.30;63.00;;;;;;2316742;54;20984;-70
2023/09/16 08:15:48;;;;;;;;;;;22.40;63.30;;;;;;2561116;53;21738;-71
2023/09/16 08:18:15;;;;;;;4.90;3.17;;;22.50;63.10;;;;;;2556711;53;20294;-69
2023/09/16 08:20:44;;;;;;;4.95;3.35;;;22.50;62.70;;;;;;2557296;53;20963;-68
2023/09/16 08:23:15;;;;;;;5.57;3.25;;;22.60;63.60;;;;;;2556678;53;21852;-70
2023/09/16 08:25:41;;;;;;;4.50;3.10;;;22.70;62.90;;;;;;2317101;55;20966;-71
2023/09/16 08:28:07;;;;;;;11.75;4.43;;;22.80;62.90;;;;;;2557050;53;20983;-68
2023/09/16 08:30:34;;;;;;;5.22;3.67;;;22.80;62.90;;;;;;2316917;54;20976;-69
2023/09/16 08:33:00;;;;;;;5.60;3.67;;;22.90;62.90;;;;;;2314886;55;20979;-69
2023/09/16 08:35:27;;;;;;;4.78;3.80;;;23.00;62.80;;;;;;2314925;55;20984;-69
2023/09/16 08:37:58;;;;;;;8.05;4.15;;;23.10;63.00;;;;;;2314805;55;20967;-70
2023/09/16 08:40:25;;;;;;;6.15;3.95;;;23.10;62.90;;;;;;2555713;53;20932;-69
2023/09/16 08:43:16;;;;;;;5.10;3.80;;;23.20;62.90;;;;;;2313548;54;20908;-69
2023/09/16 08:45:44;;;;;;;4.97;3.17;;;23.40;63.30;;;;;;2314918;55;20922;-69
2023/09/16 08:48:14;;;;;;;4.70;3.60;;;23.40;63.00;;;;;;2554893;54;20973;-69
2023/09/16 08:50:43;;;;;;;5.80;3.33;;;23.50;63.10;;;;;;2555427;53;21020;-68
2023/09/16 08:53:14;;;;;;;4.43;3.20;;;23.60;63.20;;;;;;2554296;53;20936;-70
2023/09/16 08:55:41;;;;;;;4.57;2.97;;;23.70;62.90;;;;;;2316414;53;21024;-69
2023/09/16 08:58:09;;;;;;;5.60;3.35;;;23.80;62.80;;;;;;2555667;54;20905;-69
2023/09/16 09:00:36;;;;;;;4.18;2.75;;;23.90;62.80;;;;;;2317781;54;20969;-70
2023/09/16 09:03:03;;;;;;;3.92;2.62;;;24.00;62.70;;;;;;2316048;54;21849;-69
2023/09/16 09:05:32;;;;;;;4.20;2.92;;;24.10;62.70;;;;;;2316787;54;20933;-70
2023/09/16 09:07:58;;;;;;;4.32;2.95;;;24.20;62.50;;;;;;2316351;54;20929;-72
2023/09/16 09:10:25;;;;;;;4.15;2.50;;;24.20;62.20;;;;;;2317348;54;20980;-70
2023/09/16 09:12:51;;;;;;;4.53;3.10;;;24.30;62.10;;;;;;2316886;54;21041;-69
2023/09/16 09:15:17;;;;;;;4.65;3.12;;;24.40;62.00;;;;;;2316471;54;20976;-69
2023/09/16 09:17:46;;;;;;;4.10;3.00;;;24.50;62.00;;;;;;2557407;54;21363;-69
2023/09/16 09:20:20;;;;;;;4.18;2.92;;;24.50;62.60;;;;;;2316723;54;20982;-68
2023/09/16 09:22:47;;;;;;;4.00;2.80;;;24.60;61.80;;;;;;2316596;54;20913;-69
2023/09/16 09:25:13;;;;;;;4.62;2.87;;;24.60;61.50;;;;;;2316818;54;21786;-70
2023/09/16 09:27:40;;;;;;;4.55;3.05;;;24.70;61.30;;;;;;2317157;54;21009;-69
2023/09/16 09:30:08;;;;;;;3.92;2.65;;;24.80;61.20;;;;;;2314911;54;21040;-69
2023/09/16 09:32:37;;;;;;;4.43;2.97;;;24.80;61.10;;;;;;2317272;54;20905;-70
2023/09/16 09:35:06;;;;;;;5.50;2.80;;;24.90;61.10;;;;;;2556486;54;20945;-69
2023/09/16 09:37:33;;;;;;;4.15;2.78;;;24.90;61.00;;;;;;2304942;54;21420;-69
2023/09/16 09:40:12;;;;;;;3.90;3.00;;;25.00;61.10;;;;;;2554858;53;20993;-70
2023/09/16 09:42:43;;;;;;;4.93;3.12;;;25.00;60.80;;;;;;2315853;54;21046;-70
2023/09/16 09:45:09;;;;;;;4.20;2.78;;;25.10;60.80;;;;;;2299764;54;21453;-71
2023/09/16 09:47:39;;;;;;;7.78;3.10;;;25.20;60.80;;;;;;2316956;54;21004;-70
2023/09/16 09:50:07;;;;;;;4.03;2.50;;;25.20;60.60;;;;;;2556331;53;20933;-69
2023/09/16 09:52:34;;;;;;;3.67;2.60;;;25.30;60.50;;;;;;2558039;53;20989;-69
2023/09/16 09:55:01;;;;;;;4.78;3.10;;;25.30;60.40;;;;;;2556339;53;21383;-70
2023/09/16 09:57:30;;;;;;;4.12;2.80;;;25.40;60.30;;;;;;2563847;53;21283;-69
2023/09/16 09:59:57;;;;;;;4.75;2.90;;;25.40;60.30;;;;;;2343342;54;21070;-71
2023/09/16 10:02:31;;;;;;;4.75;3.10;;;25.50;60.30;;;;;;2343868;54;20930;-71
2023/09/16 10:05:05;;;;;;;4.47;3.40;;;25.50;60.30;;;;;;2341799;54;21479;-70
2023/09/16 10:07:31;;;;;;;4.25;2.87;;;25.60;60.20;;;;;;2589473;53;21474;-72
2023/09/16 10:09:58;;;;;;;5.05;2.80;;;25.70;60.20;;;;;;2589023;53;20955;-67
2023/09/16 10:12:25;;;;;;;4.10;2.92;;;25.70;60.20;;;;;;2343834;54;20946;-70
2023/09/16 10:14:52;;;;;;;7.30;3.05;;;25.80;60.10;;;;;;2589553;53;21002;-69
2023/09/16 10:17:19;;;;;;;5.43;3.58;;;25.80;60.00;;;;;;2589025;52;20943;-69
2023/09/16 10:19:45;;;;;;;5.85;3.85;;;25.90;59.90;;;;;;2590206;53;20998;-70
2023/09/16 10:22:12;;;;;;;5.00;3.25;;;26.00;59.80;;;;;;2323056;55;20954;-71
2023/09/16 10:24:44;;;;;;;6.53;3.65;;;26.00;59.60;;;;;;2590467;52;20958;-70
2023/09/16 10:27:30;;;;;;;4.22;3.10;;;26.10;59.40;;;;;;2583206;53;20943;-69
2023/09/16 10:29:56;;;;;;;4.93;3.03;;;26.10;59.20;;;;;;2323092;54;20988;-69
2023/09/16 10:32:23;;;;;;;4.05;2.90;;;26.20;59.30;;;;;;2569708;53;20943;-68
2023/09/16 10:34:49;;;;;;;4.30;3.10;;;26.20;59.20;;;;;;2343465;54;20990;-70
2023/09/16 10:37:19;;;;;;;4.53;2.80;;;26.30;59.10;;;;;;2343313;54;20970;-67
2023/09/16 10:39:49;;;;;;;4.32;2.80;;;26.30;59.00;;;;;;2589317;52;20977;-66
2023/09/16 10:42:19;;;;;;;4.20;2.95;;;26.30;59.10;;;;;;2555201;54;20974;-69
2023/09/16 10:44:47;;;;;;;4.55;3.25;;;26.40;59.00;;;;;;2315997;55;20979;-69
2023/09/16 10:47:16;;;;;;;3.92;2.97;;;26.40;58.70;;;;;;2555482;54;21090;-70
2023/09/16 10:49:46;;;;;;;3.95;2.72;;;26.50;58.60;;;;;;2589478;53;20988;-71
2023/09/16 10:52:18;;;;;;;3.60;2.70;;;26.50;58.60;;;;;;2342200;54;21398;-69
2023/09/16 10:55:01;;;;;;;4.22;2.97;;;26.60;58.50;;;;;;2589234;53;21903;-68
2023/09/16 10:57:34;;;;;;;4.90;3.12;;;26.60;58.50;;;;;;2342582;55;21295;-68
2023/09/16 11:00:03;;;;;;;4.12;3.00;;;26.70;58.50;;;;;;2342232;54;21000;-68
2023/09/16 11:02:33;;;;;;;5.93;2.62;;;26.70;58.40;;;;;;2342836;55;20944;-68
2023/09/16 11:05:00;;;;;;;4.32;3.00;;;26.70;58.30;;;;;;2341834;54;20973;-67
2023/09/16 11:07:27;;;;;;;3.78;2.53;;;26.80;58.40;;;;;;2589134;53;21503;-70
2023/09/16 11:09:54;;;;;;;4.43;2.97;;;26.80;58.30;;;;;;2589372;53;20921;-68
2023/09/16 11:12:20;;;;;;;4.55;3.08;;;26.90;58.30;;;;;;2342741;55;20952;-69
2023/09/16 11:14:46;;;;;;;4.10;2.83;;;27.00;58.30;;;;;;2589261;53;20972;-71
2023/09/16 11:17:14;;;;;;;3.92;2.75;;;27.00;58.10;;;;;;2588479;53;20957;-67
2023/09/16 11:19:41;;;;;;;5.18;3.25;;;27.00;58.00;;;;;;2550399;53;20949;-67
2023/09/16 11:22:08;;;;;;;4.40;2.62;;;27.10;57.90;;;;;;2587053;53;21080;-68
2023/09/16 11:24:35;;;;;;;3.97;2.90;;;27.20;57.90;;;;;;2318993;54;20996;-68
2023/09/16 11:27:02;;;;;;;4.03;2.78;;;27.20;57.90;;;;;;2340425;54;21000;-66
2023/09/16 11:29:28;;;;;;;3.70;2.50;;;27.30;57.80;;;;;;2340540;55;21315;-70
2023/09/16 11:31:55;;;;;;;3.80;2.80;;;27.30;57.70;;;;;;2578738;53;22133;-68
2023/09/16 11:34:25;;;;;;;3.50;2.33;;;27.30;57.70;;;;;;2563853;53;21020;-68
2023/09/16 11:36:57;;;;;;;4.43;3.25;;;27.40;58.00;;;;;;2588058;53;21061;-68
2023/09/16 11:39:40;;;;;;;4.47;3.05;;;27.50;57.40;;;;;;2584705;53;20993;-68
2023/09/16 11:42:08;;;;;;;4.50;2.97;;;27.50;57.30;;;;;;2578449;53;20967;-66
2023/09/16 11:44:45;;;;;;;4.10;2.87;;;27.60;57.30;;;;;;2560974;53;20960;-67
2023/09/16 11:47:14;;;;;;;4.00;2.70;;;27.70;57.00;;;;;;2340827;55;20930;-68
2023/09/16 11:49:41;;;;;;;5.47;3.08;;;27.80;57.20;;;;;;2589424;53;21023;-68
2023/09/16 11:52:07;;;;;;;3.60;2.30;;;27.80;57.10;;;;;;2555535;53;21914;-66
2023/09/16 11:54:33;;;;;;;4.30;2.90;;;27.90;57.10;;;;;;2589189;53;20980;-70
2023/09/16 11:57:00;;;;;;;4.10;2.90;;;28.00;57.00;;;;;;2342078;54;20957;-68
2023/09/16 11:59:26;;;;;;;4.07;2.95;;;28.10;56.70;;;;;;2341561;54;20965;-69
2023/09/16 12:01:53;;;;;;;4.20;2.87;;;28.20;56.50;;;;;;2342963;54;21398;-70
2023/09/16 12:04:20;;;;;;;4.12;2.72;;;28.20;56.40;;;;;;2587584;53;20968;-72
2023/09/16 12:06:46;;;;;;;3.65;2.53;;;28.30;56.40;;;;;;2342737;55;20968;-70
2023/09/16 12:09:18;;;;;;;4.53;2.78;;;28.30;56.50;;;;;;2587822;53;20972;-69
2023/09/16 12:11:49;;;;;;;;;;;28.40;56.20;;;;;;2346472;54;20936;-68
2023/09/16 12:14:15;;;;;;;4.12;2.50;;;28.50;56.30;;;;;;2342610;54;20114;-70
2023/09/16 12:16:42;;;;;;;3.65;2.37;;;28.60;56.20;;;;;;2589318;53;21039;-69
2023/09/16 12:19:09;;;;;;;4.18;2.70;;;28.60;56.00;;;;;;2342082;55;21008;-69
2023/09/16 12:25:06;;;;;;;3.78;2.17;;;28.70;55.80;;;;;;2589358;53;20980;-67
2023/09/16 12:27:32;;;;;;;3.80;2.60;;;28.80;55.90;;;;;;2588872;53;20956;-67
2023/09/16 12:30:03;;;;;;;3.28;2.10;;;28.90;55.70;;;;;;2342166;55;21017;-67
2023/09/16 12:32:29;;;;;;;3.65;2.55;;;28.90;55.60;;;;;;2342203;54;21015;-68
2023/09/16 12:35:08;;;;;;;4.05;2.83;;;29.00;55.60;;;;;;2588384;53;20921;-69
2023/09/16 12:37:34;;;;;;;3.95;2.65;;;29.00;54.90;;;;;;2342491;55;20944;-69
2023/09/16 12:40:01;;;;;;;3.92;2.58;;;29.10;55.10;;;;;;2337900;54;20968;-67
2023/09/16 12:42:29;;;;;;;3.90;2.72;;;29.10;54.90;;;;;;2323922;54;20945;-69
2023/09/16 12:44:55;;;;;;;3.75;2.65;;;29.10;54.80;;;;;;2588586;53;20984;-69
2023/09/16 12:47:22;;;;;;;3.50;2.47;;;29.20;54.70;;;;;;2341939;54;20932;-69
2023/09/16 12:49:48;;;;;;;3.60;2.30;;;29.20;54.60;;;;;;2342689;55;21738;-70
2023/09/16 12:52:15;;;;;;;3.55;2.40;;;29.20;54.60;;;;;;2587662;53;20938;-70
2023/09/16 12:54:42;;;;;;;3.55;2.45;;;29.20;54.40;;;;;;2588998;53;20940;-71
2023/09/16 12:57:11;;;;;;;3.90;2.15;;;29.30;54.30;;;;;;2318202;54;20916;-69
2023/09/16 12:59:42;;;;;;;3.15;2.00;;;29.30;54.20;;;;;;2342595;54;20937;-71
2023/09/16 13:02:08;;;;;;;3.85;2.40;;;29.30;54.00;;;;;;2587962;53;21052;-67
2023/09/16 13:04:37;;;;;;;3.78;2.22;;;29.30;53.90;;;;;;2589008;53;21592;-69